vuelo de bajo nivel

                               

           VUELOS DE BAJO NIVEL DESDE SUPERFICIE HASTA 24,000 PIES.

 

  VALIDO DESDE 221200Z ...………………………HASTA 230000ZSALIDA  Y  PUESTA  DEL  SOL  07:14/18:27 

 

SANTO DOMINGO FIR...PORT-AU-PRINCE FIR ... SCT025 SCT060. ISOL SHRA. OTLK...VFR SHRA.

ELSW...SCT025 SCT060. LYRS OCNL BKN TOP 120. ISOL TO WDLY SCT SHRA. OTLK...VFR SHRA.

.ICE AND FRZLVL...ATLC SWRN NEW YORK FIR N OF 30N...OCNL MOD ICE BTN FRZLVL AND

FL240 SPREADING EAST ACROSS AREA DURING THE FCST PD. CONDS CONT BYD 21Z.ELSW...NO

SGFNT ICE EXP OUTSIDE CNVTV ACT. FRZLVL... SRN GLFMEX 9W OF 86W)...145 NW to 160 SE.

CARIB... (S OF 20N)...160 TO 175. WRN ATLC (N OF 20N)...090 NE TO 160 S...TURB...

NO SGFNT TURB EXP OUTSIDE CNVTV ACT.

 

5,000 FT.

10,000 FT.

18,000 FT.

24,000 FT.

MDSD

0815KT+16ºC

0000KT+09ºC

0000KT-07ºC

3125KT-17ºC

MTPP

0815KT+16ºC

0215KT+09ºC

     0205KT-07ºC

3125KT-17ºC

TJSJ

0910KT+15ºC

       0000KT+08ºC

0000KT-07ºC

0115KT-18ºC


TAF MDPP
221000Z 2212/2312 00000KT 9999 FEW018 BECMG 2214/2216 09010KT=

TAF MDST 221000Z 2212/2312 11012KT 9999 SCT020 BECMG 2212/2214 00000KT=

TAF MDPC 221000Z 2212/2312 05010KT 9999 SCT022 PROB30 2212/2216 8000 SH BKN018=

TAF MDBH 221000Z 2212/2312 27006KT 9999 FEW018 SCT080=

TAF MDJB 221000Z 2212/2312 00000KT 9999 FEW018 SCT300 BECMG 2214/2216 04005KT=

TAF MDSD 221000Z 2212/2312 02004KT 9999 SCT016 BECMG 2217/2219 15006KT=

TAF MDLR 221000Z 2212/2312 00000KT 9999 SCT016=

TAF MDCY 221000Z 2212/2312 03004KT 9999 SCT016=

TAF KMIA 220844Z 2209/2312 VRB03KT P6SM FEW010 FEW035 FM221600 21009KT P6SM SCT040 SCT250 FM230100 VRB03KT P6SM FEW035 FEW250=

TAF KJFK 220843Z 2209/2312 24007KT P6SM BKN080 FM221200 27012KT P6SM SCT040 FM221500 28018G25KT P6SM BKN040 FM230100 30015G22KT P6SM FEW040=

TAF TJSJ 220526Z 2206/2306 09008KT P6SM SCT030 FM220630 VRB03KT P6SM VCSH FEW025 SCT050 FM221400 06012KT P6SM FEW025 SCT060 FM222300 08007KT P6SM SCT030=

TAF MUHA 220500Z 2206/2306 VRB03KT 9000 FEW030 BECMG 2213/2215 18010KT BECMG 2301/2303 VRB03KT=

TAF MUGM TAF 2207/2307 34006KT 9999 FEW030 SCT070 SCT250 QNH2992INS FM221800 14013KT 9999 FEW030 FEW080 SCT250 QNH2991INS FM222200 12008KT 9999 FEW030 FEW080 SCT250 QNH2994INS FM230300 33006KT 9999 FEW030 FEW250 QNH2993INS T21/2210Z T30/2218Z FN00223=

TAF TNCC 220515Z 2206/2306 11010KT 9999 SCT018=

TAF MKJP 220515Z 2206/2306 35005KT 9999 FEW022 BECMG 2214/2216 16015KT SCT022
BECMG 2301/2303 34005KT=

 

PREPARADO POR: BILLY DE LA CRUZ. EL  22 DE ENERO DEL 2021=